Time;durP1;ratioP1;P1;durP2;ratioP2;P2;SDS_P1;SDS_P2;PMS_P1;PMS_P2;Temp;Humidity;BMP_temperature;BMP_pressure;BME280_temperature;BME280_humidity;BME280_pressure;Samples;Min_cycle;Max_cycle;Signal;HPM_P1;HPM_P2
2023/02/07 00:01:09;;;;;;;;;12.50;7.00;;;;;4.45;100.00;103343.16;5078762;28;45701;-81
2023/02/07 00:03:35;;;;;;;;;8.00;5.50;;;;;4.45;100.00;103343.16;5060496;28;45498;-81
2023/02/07 00:06:08;;;;;;;;;10.00;7.75;;;;;4.43;100.00;103337.06;5059828;28;45558;-81
2023/02/07 00:08:34;;;;;;;;;6.00;5.00;;;;;4.44;100.00;103335.41;5078811;28;45414;-81
2023/02/07 00:11:05;;;;;;;;;7.75;7.00;;;;;4.43;100.00;103334.50;5078219;27;45349;-81
2023/02/07 00:13:30;;;;;;;;;10.00;8.00;;;;;4.42;100.00;103327.59;5078390;27;45287;-81
2023/02/07 00:15:55;;;;;;;;;8.00;5.00;;;;;4.43;100.00;103325.88;5059450;28;63706;-81
2023/02/07 00:18:21;;;;;;;;;6.50;6.50;;;;;4.40;100.00;103315.44;5077663;27;52098;-82
2023/02/07 00:20:56;;;;;;;;;13.50;7.00;;;;;4.38;100.00;103315.41;5077127;27;52549;-81
2023/02/07 00:23:22;;;;;;;;;12.00;6.75;;;;;4.36;100.00;103319.59;5059965;28;45435;-81
2023/02/07 00:25:47;;;;;;;;;6.25;5.00;;;;;4.35;100.00;103310.13;5077895;27;45304;-81
2023/02/07 00:28:12;;;;;;;;;8.50;8.50;;;;;4.32;100.00;103309.13;5077074;28;62715;-81
2023/02/07 00:30:38;;;;;;;;;9.25;5.00;;;;;4.30;100.00;103303.91;5077589;27;59483;-81
2023/02/07 00:33:03;;;;;;;;;11.25;9.25;;;;;4.25;100.00;103311.47;5076973;27;57754;-81
2023/02/07 00:35:28;;;;;;;;;9.50;5.00;;;;;4.23;100.00;103309.66;5077132;27;54860;-81
2023/02/07 00:37:54;;;;;;;;;7.75;7.00;;;;;4.18;100.00;103298.28;5077279;28;47211;-81
2023/02/07 00:40:19;;;;;;;;;9.00;4.50;;;;;4.17;100.00;103301.69;5077751;28;45313;-82
2023/02/07 00:42:45;;;;;;;;;11.75;7.00;;;;;4.14;100.00;103309.28;5077180;27;56121;-81
2023/02/07 00:45:10;;;;;;;;;11.00;5.25;;;;;4.11;100.00;103304.91;5077724;28;45321;-81
2023/02/07 00:47:35;;;;;;;;;12.75;7.00;;;;;4.11;100.00;103306.63;5076613;28;61085;-81
2023/02/07 00:50:01;;;;;;;;;11.75;5.50;;;;;4.09;100.00;103319.44;5077415;28;45390;-81
2023/02/07 00:52:26;;;;;;;;;10.00;7.75;;;;;4.07;100.00;103308.19;5059696;28;45554;-81
2023/02/07 00:54:51;;;;;;;;;8.25;4.25;;;;;4.04;100.00;103310.63;5077615;27;45310;-81
2023/02/07 00:57:17;;;;;;;;;6.00;5.25;;;;;4.02;100.00;103309.69;5077211;28;57764;-81
2023/02/07 00:59:42;;;;;;;;;10.00;7.00;;;;;4.01;100.00;103308.81;5076810;28;61494;-81
2023/02/07 01:02:08;;;;;;;;;7.50;5.50;;;;;3.99;100.00;103309.56;5077476;28;45246;-81
2023/02/07 01:04:33;;;;;;;;;7.75;7.25;;;;;3.98;100.00;103315.56;5077110;28;48955;-81
2023/02/07 01:06:58;;;;;;;;;7.00;3.50;;;;;3.97;100.00;103313.78;5076580;28;66568;-81
2023/02/07 01:09:24;;;;;;;;;7.75;5.25;;;;;3.98;100.00;103326.75;5076087;27;45252;-81
2023/02/07 01:11:49;;;;;;;;;8.25;5.25;;;;;4.00;100.00;103322.53;5076936;28;50123;-81
2023/02/07 01:14:15;;;;;;;;;10.50;7.00;;;;;4.03;100.00;103312.34;5077010;27;45300;-81
2023/02/07 01:16:41;;;;;;;;;7.75;7.00;;;;;4.01;100.00;103307.94;5076622;27;46165;-81
2023/02/07 01:19:08;;;;;;;;;8.75;4.50;;;;;4.01;100.00;103319.13;4964864;28;56511;-81
2023/02/07 01:21:33;;;;;;;;;5.25;4.00;;;;;3.99;100.00;103310.47;4973520;28;45439;-81
2023/02/07 01:23:58;;;;;;;;;10.50;7.00;;;;;3.99;100.00;103313.03;4974144;28;52138;-81
2023/02/07 01:26:25;;;;;;;;;7.25;6.25;;;;;3.98;100.00;103310.41;4974331;28;45498;-81
2023/02/07 01:28:50;;;;;;;;;9.75;4.75;;;;;3.94;100.00;103296.50;4973066;28;45846;-81
2023/02/07 01:31:16;;;;;;;;;8.75;7.00;;;;;3.93;100.00;103301.59;4972850;28;45396;-81
2023/02/07 01:33:41;;;;;;;;;5.75;4.75;;;;;3.93;100.00;103304.19;4975014;28;45401;-81
2023/02/07 01:36:08;;;;;;;;;12.00;7.00;;;;;3.91;100.00;103300.66;4974502;27;46190;-81
2023/02/07 01:38:34;;;;;;;;;10.50;7.00;;;;;3.90;100.00;103294.63;4974303;28;45225;-81
2023/02/07 01:41:00;;;;;;;;;10.50;7.75;;;;;3.88;100.00;103296.25;4974525;28;45504;-81
2023/02/07 01:43:25;;;;;;;;;11.25;7.75;;;;;3.91;100.00;103304.13;4973165;28;45356;-81
2023/02/07 01:45:51;;;;;;;;;10.50;7.00;;;;;3.90;100.00;103299.78;4972525;28;51962;-81
2023/02/07 01:48:22;;;;;;;;;13.50;6.50;;;;;3.90;100.00;103292.06;4972385;28;63222;-81
2023/02/07 01:50:48;;;;;;;;;6.75;6.75;;;;;3.88;100.00;103294.56;4972835;28;45276;-81
2023/02/07 01:53:16;;;;;;;;;11.25;4.75;;;;;3.87;100.00;103287.66;4973732;28;45267;-81
2023/02/07 01:55:44;;;;;;;;;9.00;6.00;;;;;3.87;100.00;103282.50;4972793;28;47263;-81
2023/02/07 01:58:10;;;;;;;;;8.25;7.00;;;;;3.86;100.00;103287.59;4972746;28;45452;-81
2023/02/07 02:00:36;;;;;;;;;6.00;5.75;;;;;3.84;100.00;103276.34;4972744;28;45494;-81
2023/02/07 02:03:02;;;;;;;;;10.00;7.25;;;;;3.83;100.00;103280.63;4955865;28;60307;-81
2023/02/07 02:05:29;;;;;;;;;13.50;8.25;;;;;3.83;100.00;103279.75;4973887;28;46281;-81
2023/02/07 02:07:55;;;;;;;;;14.50;10.00;;;;;3.81;100.00;103281.41;4972786;28;45414;-81
2023/02/07 02:10:22;;;;;;;;;10.75;4.00;;;;;3.79;100.00;103286.47;4973961;28;45322;-81
2023/02/07 02:13:08;;;;;;;;;13.00;7.00;;;;;3.78;100.00;103281.25;4973937;28;45406;-81
2023/02/07 02:15:40;;;;;;;;;16.50;6.00;;;;;3.75;100.00;103284.59;4972101;28;45365;-81
2023/02/07 02:18:42;;;;;;;;;12.75;9.75;;;;;3.75;100.00;103271.72;4972397;28;45343;-81
2023/02/07 02:21:29;;;;;;;;;9.50;6.00;;;;;3.72;100.00;103283.59;4974509;28;45272;-81
2023/02/07 02:24:09;;;;;;;;;12.25;7.75;;;;;3.69;100.00;103271.47;4973750;28;45202;-81
2023/02/07 02:26:56;;;;;;;;;8.00;6.00;;;;;3.65;100.00;103267.88;4973804;28;46315;-81
2023/02/07 02:29:40;;;;;;;;;13.50;7.00;;;;;3.61;100.00;103271.16;4973119;28;45277;-81
2023/02/07 02:32:14;;;;;;;;;15.50;9.25;;;;;3.58;100.00;103265.00;4973642;28;45457;-81
2023/02/07 02:35:15;;;;;;;;;11.00;6.25;;;;;3.58;100.00;103260.72;4973521;28;45541;-81
2023/02/07 02:37:43;;;;;;;;;11.75;7.50;;;;;3.58;100.00;103259.84;4973391;27;45886;-81
2023/02/07 02:40:16;;;;;;;;;11.75;7.00;;;;;3.55;100.00;103263.19;4973431;27;45972;-81
2023/02/07 02:42:42;;;;;;;;;9.75;7.00;;;;;3.54;100.00;103264.00;4972271;28;45446;-82
2023/02/07 02:45:12;;;;;;;;;9.00;6.00;;;;;3.51;100.00;103245.84;4973032;28;45375;-81
2023/02/07 02:47:40;;;;;;;;;9.00;8.75;;;;;3.52;100.00;103249.31;4971937;28;46379;-81
2023/02/07 02:50:10;;;;;;;;;13.75;8.50;;;;;3.50;100.00;103264.69;4972012;28;45274;-82
2023/02/07 02:52:36;;;;;;;;;8.75;7.75;;;;;3.48;100.00;103267.19;4973475;28;45471;-81
2023/02/07 02:55:01;;;;;;;;;9.00;6.50;;;;;3.47;100.00;103273.19;4971915;28;46780;-81
2023/02/07 02:58:04;;;;;;;;;15.00;6.00;;;;;3.44;100.00;103278.19;4971154;28;66574;-81
2023/02/07 03:00:41;;;;;;;;;15.25;9.25;;;;;3.42;100.00;103268.66;4975203;28;45898;-81
2023/02/07 03:03:30;;;;;;;;;18.00;9.00;;;;;3.40;100.00;103270.25;4991314;28;45650;-82
2023/02/07 03:05:58;;;;;;;;;13.25;7.00;;;;;3.37;100.00;103262.44;4976326;28;45182;-82
2023/02/07 03:08:33;;;;;;;;;15.00;6.25;;;;;3.36;100.00;103258.09;4976095;28;45469;-81
2023/02/07 03:11:12;;;;;;;;;18.00;10.00;;;;;3.33;100.00;103264.00;4975027;28;45455;-82
2023/02/07 03:14:01;;;;;;;;;12.75;7.75;;;;;3.30;100.00;103257.00;4975779;28;45341;-81
2023/02/07 03:16:53;;;;;;;;;9.25;8.00;;;;;3.29;100.00;103260.41;4974736;28;45623;-81
2023/02/07 03:19:34;;;;;;;;;10.00;7.50;;;;;3.28;100.00;103255.19;4980637;27;45549;-81
2023/02/07 03:22:09;;;;;;;;;10.00;7.00;;;;;3.25;100.00;103250.81;4974704;28;45452;-81
2023/02/07 03:24:38;;;;;;;;;19.25;12.00;;;;;3.22;100.00;103250.69;4975137;28;45447;-82
2023/02/07 03:27:06;;;;;;;;;12.50;9.00;;;;;3.24;100.00;103248.16;4974493;28;45467;-82
2023/02/07 03:29:35;;;;;;;;;10.00;9.00;;;;;3.21;100.00;103254.09;4974448;28;46383;-82
2023/02/07 03:32:03;;;;;;;;;13.50;8.50;;;;;3.19;100.00;103258.25;4974757;28;45401;-82
2023/02/07 03:34:34;;;;;;;;;11.75;6.25;;;;;3.16;100.00;103267.53;4980337;28;45341;-82
2023/02/07 03:37:11;;;;;;;;;11.00;7.00;;;;;3.15;100.00;103270.94;4994343;28;45425;-82
2023/02/07 03:39:37;;;;;;;;;11.00;7.00;;;;;3.15;100.00;103258.94;4994098;28;46401;-82
2023/02/07 03:42:11;;;;;;;;;12.50;10.25;;;;;3.16;100.00;103257.25;4993350;28;57259;-81
2023/02/07 03:44:37;;;;;;;;;9.75;4.00;;;;;3.15;100.00;103255.50;4994648;28;45513;-82
2023/02/07 03:47:03;;;;;;;;;12.75;9.00;;;;;3.12;100.00;103263.09;4993696;28;52393;-82
2023/02/07 03:49:28;;;;;;;;;13.50;9.00;;;;;3.10;100.00;103268.16;4995012;28;46120;-81
2023/02/07 03:51:54;;;;;;;;;7.25;1.00;;;;;3.06;100.00;103267.16;4994461;28;64087;-82
2023/02/07 03:54:19;;;;;;;;;9.25;9.00;;;;;3.02;100.00;103262.69;4994603;28;56033;-81
2023/02/07 03:56:44;;;;;;;;;13.50;7.00;;;;;3.01;100.00;103267.78;4994265;28;57530;-82
2023/02/07 03:59:10;;;;;;;;;6.25;6.00;;;;;3.00;100.00;103269.47;4994731;28;57910;-82
2023/02/07 04:01:40;;;;;;;;;20.00;7.00;;;;;3.00;100.00;103272.03;4994990;28;45272;-82
2023/02/07 04:04:06;;;;;;;;;12.00;9.00;;;;;2.98;100.00;103280.53;4995079;27;45439;-82
2023/02/07 04:06:31;;;;;;;;;14.50;6.50;;;;;2.95;100.00;103275.22;4995455;28;45365;-81
2023/02/07 04:08:57;;;;;;;;;9.00;9.00;;;;;2.94;100.00;103278.63;4994179;28;60960;-81
2023/02/07 04:11:22;;;;;;;;;16.75;10.50;;;;;2.91;100.00;103287.94;4993869;28;45273;-82
2023/02/07 04:13:47;;;;;;;;;12.00;9.75;;;;;2.89;100.00;103279.28;4993172;28;58338;-82
2023/02/07 04:16:12;;;;;;;;;12.75;9.00;;;;;2.88;100.00;103279.25;4994419;28;57979;-81
2023/02/07 04:18:38;;;;;;;;;12.25;7.00;;;;;2.89;100.00;103284.44;5066881;27;55597;-81
2023/02/07 04:21:05;;;;;;;;;22.00;9.00;;;;;2.89;100.00;103281.88;5098544;27;45339;-82
2023/02/07 04:23:31;;;;;;;;;9.00;7.50;;;;;2.88;100.00;103284.41;5098630;27;45325;-81
2023/02/07 04:25:57;;;;;;;;;9.75;7.00;;;;;2.88;100.00;103284.41;5080114;27;45499;-82
2023/02/07 04:28:22;;;;;;;;;15.00;11.50;;;;;2.88;100.00;103280.13;5080095;27;46209;-82
2023/02/07 04:30:47;;;;;;;;;16.50;11.50;;;;;2.86;100.00;103279.19;5097959;27;51672;-81
2023/02/07 04:33:13;;;;;;;;;14.00;8.00;;;;;2.87;100.00;103282.63;5097900;27;58073;-82
2023/02/07 04:35:38;;;;;;;;;17.50;12.00;;;;;2.85;100.00;103281.69;5080578;27;53232;-81
2023/02/07 04:38:04;;;;;;;;;14.25;8.00;;;;;2.84;100.00;103278.25;5077454;27;52961;-81
2023/02/07 04:40:29;;;;;;;;;14.50;10.00;;;;;2.80;100.00;103281.47;5077360;28;45394;-81
2023/02/07 04:42:55;;;;;;;;;18.00;10.00;;;;;2.78;100.00;103284.78;5059021;28;61521;-82
2023/02/07 04:45:20;;;;;;;;;10.00;6.00;;;;;2.77;100.00;103289.06;5077468;28;52839;-81
2023/02/07 04:47:45;;;;;;;;;20.25;7.00;;;;;2.74;100.00;103293.19;5058661;28;65005;-81
2023/02/07 04:50:10;;;;;;;;;18.75;7.00;;;;;2.71;100.00;103297.38;5076893;27;61798;-81
2023/02/07 04:52:36;;;;;;;;;16.50;9.25;;;;;2.67;100.00;103295.47;5077533;27;45445;-82
2023/02/07 04:55:02;;;;;;;;;12.00;10.25;;;;;2.67;100.00;103299.75;5059043;28;45356;-82
2023/02/07 04:57:27;;;;;;;;;10.50;9.75;;;;;2.65;100.00;103293.66;5077283;27;47060;-82
2023/02/07 04:59:53;;;;;;;;;9.75;7.00;;;;;2.65;100.00;103297.09;5077191;28;46684;-81
2023/02/07 05:02:18;;;;;;;;;12.50;7.50;;;;;2.66;100.00;103291.16;5077045;27;54456;-82
2023/02/07 05:04:43;;;;;;;;;20.25;8.50;;;;;2.64;100.00;103284.19;5077021;28;50813;-82
2023/02/07 05:07:09;;;;;;;;;21.00;10.00;;;;;2.63;100.00;103292.72;5077191;28;45484;-82
2023/02/07 05:09:34;;;;;;;;;17.75;6.75;;;;;2.61;100.00;103287.50;5076957;28;45367;-82
2023/02/07 05:11:59;;;;;;;;;11.50;7.00;;;;;2.60;100.00;103284.84;5077017;27;53701;-81
2023/02/07 05:14:25;;;;;;;;;15.50;6.50;;;;;2.60;100.00;103306.31;5077266;27;45283;-81
2023/02/07 05:16:50;;;;;;;;;15.75;7.00;;;;;2.58;100.00;103313.09;5076979;27;45443;-81
2023/02/07 05:19:16;;;;;;;;;9.25;8.00;;;;;2.57;100.00;103313.88;5076270;27;62114;-81
2023/02/07 05:21:41;;;;;;;;;16.75;6.50;;;;;2.54;100.00;103311.16;5059072;28;45449;-81
2023/02/07 05:24:07;;;;;;;;;14.00;9.25;;;;;2.54;100.00;103307.72;5074805;28;60213;-82
2023/02/07 05:26:32;;;;;;;;;17.50;10.00;;;;;2.52;100.00;103307.66;5076607;28;59202;-82
2023/02/07 05:28:57;;;;;;;;;10.00;3.00;;;;;2.50;100.00;103312.72;5076773;27;45468;-81
2023/02/07 05:33:02;;;;;;;;;15.75;10.00;;;;;2.50;100.00;103316.97;5077288;28;45385;-82
2023/02/07 05:34:08;;;;;;;;;13.00;10.00;;;;;2.46;100.00;103313.38;5077876;27;45382;-82
2023/02/07 05:36:33;;;;;;;;;18.50;12.75;;;;;2.44;100.00;103307.31;5076614;28;47121;-81
2023/02/07 05:38:59;;;;;;;;;17.75;9.75;;;;;2.42;100.00;103302.91;5076135;27;52135;-82
2023/02/07 05:41:24;;;;;;;;;12.75;10.50;;;;;2.40;100.00;103300.25;5076327;27;54758;-81
2023/02/07 05:43:49;;;;;;;;;22.50;10.00;;;;;2.38;100.00;103306.13;5076328;28;57817;-82
2023/02/07 05:46:15;;;;;;;;;15.75;11.00;;;;;2.35;100.00;103304.31;5076143;27;58811;-81
2023/02/07 05:48:40;;;;;;;;;9.25;8.50;;;;;2.35;100.00;103311.16;5076549;27;45339;-82
2023/02/07 05:51:05;;;;;;;;;13.00;7.00;;;;;2.32;100.00;103305.06;5076415;27;53393;-82
2023/02/07 05:53:31;;;;;;;;;16.00;9.50;;;;;2.28;100.00;103310.84;5076045;28;47340;-81
2023/02/07 05:55:56;;;;;;;;;11.75;10.50;;;;;2.26;100.00;103312.47;5076120;27;56630;-82
2023/02/07 05:58:21;;;;;;;;;11.00;8.50;;;;;2.23;100.00;103306.28;5075800;28;62777;-81
2023/02/07 06:00:47;;;;;;;;;10.50;8.50;;;;;2.23;100.00;103314.91;5076054;28;56814;-81
2023/02/07 06:03:13;;;;;;;;;9.00;7.50;;;;;2.25;100.00;103325.28;5076537;28;45261;-82
2023/02/07 06:05:38;;;;;;;;;16.00;7.50;;;;;2.23;100.00;103332.91;5058248;28;45369;-82
2023/02/07 06:08:04;;;;;;;;;12.50;10.00;;;;;2.22;100.00;103335.38;5075937;27;45229;-82
2023/02/07 06:10:29;;;;;;;;;20.75;9.75;;;;;2.21;100.00;103329.38;5075959;28;58259;-82
2023/02/07 06:12:54;;;;;;;;;15.50;9.00;;;;;2.20;100.00;103314.75;5076592;27;45159;-82
2023/02/07 06:15:20;;;;;;;;;8.75;7.00;;;;;2.20;100.00;103312.19;5075964;28;50205;-82
2023/02/07 06:17:45;;;;;;;;;17.00;10.00;;;;;2.20;100.00;103311.31;5076228;27;45281;-81
2023/02/07 06:20:11;;;;;;;;;16.50;8.00;;;;;2.18;100.00;103315.50;5076466;27;45372;-82
2023/02/07 06:22:36;;;;;;;;;18.75;9.25;;;;;2.17;100.00;103324.88;5058087;28;45270;-81
2023/02/07 06:25:02;;;;;;;;;15.25;10.50;;;;;2.20;100.00;103331.88;5076359;28;46725;-81
2023/02/07 06:27:27;;;;;;;;;21.00;10.00;;;;;2.21;100.00;103328.47;5076144;28;45412;-82
2023/02/07 06:29:53;;;;;;;;;12.50;9.75;;;;;2.20;100.00;103327.59;5076195;28;48184;-81
2023/02/07 06:32:18;;;;;;;;;11.00;8.00;;;;;2.17;100.00;103322.31;5076246;27;45532;-81
2023/02/07 06:34:43;;;;;;;;;11.75;8.00;;;;;2.16;100.00;103327.41;5075225;28;45444;-81
2023/02/07 06:37:09;;;;;;;;;13.00;11.50;;;;;2.16;100.00;103327.41;5075704;28;45446;-81
2023/02/07 06:39:34;;;;;;;;;9.75;9.25;;;;;2.14;100.00;103337.59;5075784;28;54685;-81
2023/02/07 06:41:59;;;;;;;;;12.75;7.50;;;;;2.11;100.00;103322.91;5075542;28;57645;-81
2023/02/07 06:44:25;;;;;;;;;15.00;11.00;;;;;2.11;100.00;103325.47;5075980;28;46193;-82
2023/02/07 06:46:50;;;;;;;;;11.00;7.50;;;;;2.09;100.00;103332.22;5075369;28;59672;-81
2023/02/07 06:49:15;;;;;;;;;7.75;6.75;;;;;2.10;100.00;103335.69;5075459;28;55746;-81
2023/02/07 06:51:41;;;;;;;;;14.50;9.25;;;;;2.10;100.00;103333.13;5074934;28;53858;-80
2023/02/07 06:54:09;;;;;;;;;11.00;8.50;;;;;2.09;100.00;103331.34;5057088;28;61862;-82
2023/02/07 06:56:36;;;;;;;;;14.00;10.00;;;;;2.08;100.00;103338.19;5058197;28;45822;-81
2023/02/07 06:59:01;;;;;;;;;9.25;7.50;;;;;2.08;100.00;103347.56;5076065;28;45417;-81
2023/02/07 07:01:26;;;;;;;;;12.75;7.00;;;;;2.07;100.00;103353.53;5075525;28;53804;-81
2023/02/07 07:03:52;;;;;;;;;13.75;9.50;;;;;2.08;100.00;103351.03;5075149;27;60898;-82
2023/02/07 07:06:17;;;;;;;;;15.00;9.25;;;;;2.09;100.00;103345.06;5073607;27;57175;-78
2023/02/07 07:08:42;;;;;;;;;17.50;6.00;;;;;2.10;100.00;103356.25;5075302;27;49900;-78
2023/02/07 07:11:08;;;;;;;;;12.00;11.00;;;;;2.09;100.00;103359.63;5075310;28;52165;-78
2023/02/07 07:13:33;;;;;;;;;9.75;9.00;;;;;2.08;100.00;103350.13;5074913;28;58111;-78
2023/02/07 07:15:58;;;;;;;;;13.00;9.50;;;;;2.10;100.00;103366.53;5056532;28;59091;-78
2023/02/07 07:18:24;;;;;;;;;15.50;9.25;;;;;2.12;100.00;103362.34;5020965;28;45478;-78
2023/02/07 07:20:53;;;;;;;;;18.25;12.75;;;;;2.10;100.00;103352.00;4971183;28;59695;-77
2023/02/07 07:23:18;;;;;;;;;16.25;9.00;;;;;2.12;100.00;103382.91;4970647;28;46302;-78
2023/02/07 07:25:44;;;;;;;;;10.50;10.00;;;;;2.11;100.00;103368.28;4971731;28;45338;-78
2023/02/07 07:28:09;;;;;;;;;14.25;11.50;;;;;2.13;100.00;103374.38;4972144;28;46219;-76
2023/02/07 07:30:34;;;;;;;;;10.00;8.50;;;;;2.11;100.00;103379.44;4971159;28;56430;-77
2023/02/07 07:33:00;;;;;;;;;10.50;6.00;;;;;2.12;100.00;103368.38;4972256;28;45427;-78
2023/02/07 07:35:25;;;;;;;;;12.25;8.00;;;;;2.15;100.00;103374.44;4970438;28;63708;-78
2023/02/07 07:37:50;;;;;;;;;14.00;12.75;;;;;2.16;100.00;103377.09;4971914;28;45433;-78
2023/02/07 07:40:16;;;;;;;;;12.00;9.25;;;;;2.18;100.00;103372.91;4971479;28;58865;-78
2023/02/07 07:42:41;;;;;;;;;9.75;7.00;;;;;2.17;100.00;103366.00;4971125;28;45355;-77
2023/02/07 07:45:07;;;;;;;;;13.00;12.00;;;;;2.19;100.00;103361.84;4972086;28;54995;-77
2023/02/07 07:47:32;;;;;;;;;12.50;10.00;;;;;2.22;100.00;103353.38;4973733;28;45519;-78
2023/02/07 07:49:57;;;;;;;;;9.75;7.00;;;;;2.22;100.00;103350.81;4974642;28;45488;-78
2023/02/07 07:52:23;;;;;;;;;15.00;10.00;;;;;2.21;100.00;103364.44;4973975;28;64280;-77
2023/02/07 07:54:48;;;;;;;;;11.50;9.00;;;;;2.23;100.00;103362.84;4973093;28;58121;-78
2023/02/07 07:57:13;;;;;;;;;12.25;8.50;;;;;2.26;100.00;103373.28;4987677;28;57419;-78
2023/02/07 07:59:39;;;;;;;;;15.25;9.50;;;;;2.27;100.00;103369.91;5069407;28;45434;-79
2023/02/07 08:02:04;;;;;;;;;11.25;7.00;;;;;2.26;100.00;103366.44;4976159;28;65754;-79
2023/02/07 08:04:29;;;;;;;;;9.75;9.25;;;;;2.28;100.00;103369.09;4974294;28;45336;-78
2023/02/07 08:06:56;;;;;;;;;17.00;9.50;;;;;2.27;100.00;103369.91;5008392;28;53283;-78
2023/02/07 08:09:21;;;;;;;;;18.25;9.25;;;;;2.27;100.00;103369.91;5022523;28;45359;-78
2023/02/07 08:11:47;;;;;;;;;8.25;7.00;;;;;2.26;100.00;103366.44;4973206;28;64013;-78
2023/02/07 08:14:12;;;;;;;;;12.75;8.00;;;;;2.27;100.00;103362.19;4973630;28;61988;-78
2023/02/07 08:16:37;;;;;;;;;11.75;6.75;;;;;2.27;100.00;103377.63;4973425;28;56690;-78
2023/02/07 08:19:02;;;;;;;;;9.75;7.00;;;;;2.28;100.00;103377.66;4983432;28;47875;-79
2023/02/07 08:21:28;;;;;;;;;10.50;9.00;;;;;2.30;100.00;103380.31;5076857;28;65427;-78
2023/02/07 08:23:53;;;;;;;;;16.75;7.00;;;;;2.29;100.00;103387.16;4986305;28;61687;-78
2023/02/07 08:26:19;;;;;;;;;17.50;9.25;;;;;2.31;100.00;103380.41;4974444;28;45343;-77
2023/02/07 08:28:44;;;;;;;;;8.50;8.00;;;;;2.33;100.00;103377.91;4983074;27;45639;-78
2023/02/07 08:31:11;;;;;;;;;11.00;10.00;;;;;2.35;100.00;103394.28;5029653;27;57827;-78
2023/02/07 08:33:36;;;;;;;;;13.50;10.25;;;;;2.37;100.00;103377.22;4975967;28;45513;-78
2023/02/07 08:36:04;;;;;;;;;9.25;7.00;;;;;2.39;100.00;103388.47;4980159;28;45495;-79
2023/02/07 08:38:29;;;;;;;;;12.00;6.50;;;;;2.41;100.00;103389.41;4977685;28;45731;-78
2023/02/07 08:40:55;;;;;;;;;13.75;8.50;;;;;2.45;100.00;103393.91;4978413;28;57053;-78
2023/02/07 08:43:20;;;;;;;;;13.00;8.00;;;;;2.46;100.00;103381.94;4975161;28;45485;-78
2023/02/07 08:45:47;;;;;;;;;19.00;10.00;;;;;2.51;100.00;103390.75;4978534;28;45422;-78
2023/02/07 08:48:13;;;;;;;;;12.25;8.50;;;;;2.53;100.00;103389.13;4979477;28;45481;-78
2023/02/07 08:50:38;;;;;;;;;9.50;8.50;;;;;2.56;100.00;103388.38;4989475;27;45866;-78
2023/02/07 08:53:03;;;;;;;;;12.25;9.00;;;;;2.60;100.00;103392.84;4992945;28;61574;-78
2023/02/07 08:55:29;;;;;;;;;12.50;7.50;;;;;2.61;100.00;103397.19;5000244;28;45157;-78
2023/02/07 08:57:55;;;;;;;;;16.50;10.75;;;;;2.62;100.00;103397.28;4992457;28;45746;-78
2023/02/07 09:00:20;;;;;;;;;17.75;9.00;;;;;2.64;100.00;103394.78;5001692;28;45702;-78
2023/02/07 09:02:45;;;;;;;;;12.00;5.50;;;;;2.67;100.00;103387.19;4970036;28;45370;-78
2023/02/07 09:05:11;;;;;;;;;14.25;7.50;;;;;2.69;100.00;103386.47;4976157;28;58180;-78
2023/02/07 09:07:36;;;;;;;;;8.00;6.00;;;;;2.72;100.00;103378.00;4976457;28;45573;-78
2023/02/07 09:10:05;;;;;;;;;12.00;6.75;;;;;2.77;100.00;103394.53;4984986;27;45548;-78
2023/02/07 09:12:31;;;;;;;;;5.50;5.50;;;;;2.80;100.00;103375.78;4978285;28;45911;-78
2023/02/07 09:14:56;;;;;;;;;18.75;9.00;;;;;2.82;100.00;103384.44;4980981;28;45359;-78
2023/02/07 09:17:22;;;;;;;;;18.50;7.00;;;;;2.85;100.00;103387.16;5044757;28;58488;-79
2023/02/07 09:19:47;;;;;;;;;18.50;7.00;;;;;2.88;100.00;103383.03;4996317;28;62989;-78
2023/02/07 09:22:13;;;;;;;;;11.00;9.50;;;;;2.93;100.00;103393.53;4989721;28;56910;-78
2023/02/07 09:24:38;;;;;;;;;6.75;6.75;;;;;2.98;100.00;103409.19;4982913;28;45471;-79
2023/02/07 09:27:04;;;;;;;;;11.50;7.00;;;;;3.04;100.00;103409.44;5003073;28;45514;-78
2023/02/07 09:29:29;;;;;;;;;13.25;8.50;;;;;3.07;100.00;103407.03;4976799;28;46577;-78
2023/02/07 09:31:54;;;;;;;;;12.50;8.00;;;;;3.12;100.00;103405.53;4991749;28;45495;-78
2023/02/07 09:34:20;;;;;;;;;13.50;9.25;;;;;3.17;100.00;103408.31;5027322;28;61664;-78
2023/02/07 09:36:45;;;;;;;;;12.25;6.25;;;;;3.19;100.00;103402.41;4982682;28;59278;-79
2023/02/07 09:39:11;;;;;;;;;14.50;10.00;;;;;3.22;100.00;103410.28;4988968;28;46471;-79
2023/02/07 09:42:04;;;;;;;;;9.25;8.00;;;;;3.27;100.00;103415.63;5042961;28;45344;-78
2023/02/07 09:44:41;;;;;;;;;14.00;9.25;;;;;3.29;100.00;103414.88;4978092;28;45226;-79
2023/02/07 09:47:14;;;;;;;;;12.50;6.75;;;;;3.33;100.00;103417.59;5006291;28;45242;-79
2023/02/07 09:49:52;;;;;;;;;12.00;7.00;;;;;3.37;100.00;103419.50;5054908;28;46555;-78
2023/02/07 09:52:25;;;;;;;;;11.25;7.00;;;;;3.39;100.00;103418.72;4988480;28;45833;-78
2023/02/07 09:54:52;;;;;;;;;8.00;8.00;;;;;3.45;100.00;103426.72;5044880;27;45475;-79
2023/02/07 09:57:27;;;;;;;;;11.75;8.00;;;;;3.51;100.00;103425.22;5060420;28;45365;-79
2023/02/07 10:00:03;;;;;;;;;11.50;6.50;;;;;3.58;100.00;103432.41;5042924;28;46476;-78
2023/02/07 10:02:45;;;;;;;;;6.50;6.00;;;;;3.66;100.00;103433.63;5055382;28;45518;-79
2023/02/07 10:05:17;;;;;;;;;14.00;5.00;;;;;3.74;100.00;103428.81;5041633;28;45403;-79
2023/02/07 10:07:47;;;;;;;;;15.50;6.25;;;;;3.80;100.00;103421.31;5056709;27;45340;-79
2023/02/07 10:10:18;;;;;;;;;12.50;9.00;;;;;3.83;100.00;103424.91;4997421;28;45428;-79
2023/02/07 10:12:43;;;;;;;;;7.25;3.75;;;;;3.88;100.00;103428.56;4978083;28;46124;-78
2023/02/07 10:15:33;;;;;;;;;6.67;3.67;;;;;3.89;100.00;103426.88;5036675;28;45409;-79
2023/02/07 10:18:01;;;;;;;;;7.00;7.00;;;;;3.95;100.00;103431.41;5060897;28;45506;-79
2023/02/07 10:20:36;;;;;;;;;9.75;7.75;;;;;3.99;100.00;103423.88;4990953;28;45412;-78
2023/02/07 10:23:20;;;;;;;;;9.75;8.25;;;;;4.07;100.00;103419.03;5051084;28;46852;-79
2023/02/07 10:26:07;;;;;;;;;10.00;7.00;;;;;4.12;100.00;103435.53;4979183;28;45435;-79
2023/02/07 10:28:45;;;;;;;;;11.50;8.00;;;;;4.19;100.00;103426.38;4973226;28;45633;-79
2023/02/07 10:31:15;;;;;;;;;8.00;5.25;;;;;4.22;100.00;103417.06;4979855;28;46257;-78
2023/02/07 10:33:47;;;;;;;;;9.50;6.00;;;;;4.24;100.00;103414.56;5062308;27;45805;-78
2023/02/07 10:36:14;;;;;;;;;14.75;8.50;;;;;4.29;100.00;103425.94;5070467;28;45439;-78
2023/02/07 10:39:18;;;;;;;;;16.25;10.00;;;;;4.36;100.00;103435.66;5047858;28;45336;-78
2023/02/07 10:41:43;;;;;;;;;13.50;5.25;;;;;4.44;100.00;103429.13;4996766;28;46303;-78
2023/02/07 10:44:12;;;;;;;;;11.50;7.50;;;;;4.54;100.00;103421.75;5007396;28;45413;-79
2023/02/07 10:46:39;;;;;;;;;4.25;2.25;;;;;4.60;100.00;103429.72;4996642;28;45523;-79
2023/02/07 10:49:05;;;;;;;;;6.75;6.75;;;;;4.67;100.00;103423.97;5005366;28;45490;-78
2023/02/07 10:51:33;;;;;;;;;12.00;7.00;;;;;4.73;100.00;103420.75;4995720;28;46233;-79
2023/02/07 10:54:11;;;;;;;;;6.50;5.00;;;;;4.76;100.00;103423.47;5003226;28;45853;-80
2023/02/07 10:56:45;;;;;;;;;17.00;4.75;;;;;4.81;100.00;103427.97;5006390;28;46026;-79
2023/02/07 10:59:47;;;;;;;;;15.50;7.50;;;;;4.92;100.00;103428.38;5000440;28;45492;-80
2023/02/07 11:02:29;;;;;;;;;9.00;7.00;;;;;5.01;100.00;103433.88;4997827;28;45570;-80
2023/02/07 11:04:59;;;;;;;;;7.00;7.00;;;;;5.08;100.00;103413.44;4979970;28;45956;-79
2023/02/07 11:07:25;;;;;;;;;4.00;1.25;;;;;5.11;100.00;103421.28;4994844;28;45385;-79
2023/02/07 11:09:51;;;;;;;;;10.50;5.25;;;;;5.14;100.00;103417.13;4963115;28;45735;-79
2023/02/07 11:12:21;;;;;;;;;8.50;6.00;;;;;5.22;100.00;103417.44;5008948;28;46302;-79
2023/02/07 11:15:03;;;;;;;;;11.50;8.50;;;;;5.37;100.00;103411.94;4987157;28;45370;-80
2023/02/07 11:17:29;;;;;;;;;7.00;5.50;;;;;5.51;100.00;103408.09;5003842;28;45616;-79
2023/02/07 11:19:55;;;;;;;;;11.25;5.00;;;;;5.73;100.00;103416.59;5042111;28;45951;-78
2023/02/07 11:22:23;;;;;;;;;7.75;7.00;;;;;5.92;100.00;103407.75;4982712;28;45901;-78
2023/02/07 11:24:51;;;;;;;;;5.50;4.75;;;;;6.14;100.00;103418.00;5050051;28;45819;-78